sensor_id;sensor_type;location;lat;lon;timestamp;P1;durP1;ratioP1;P2;durP2;ratioP2
25854;SDS011;13680;49.936;11.344;2022-08-20T00:00:04;18.00;;;12.32;;
25854;SDS011;13680;49.936;11.344;2022-08-20T00:02:39;15.27;;;12.43;;
25854;SDS011;13680;49.936;11.344;2022-08-20T00:05:06;18.00;;;12.32;;
25854;SDS011;13680;49.936;11.344;2022-08-20T00:07:32;14.10;;;11.95;;
25854;SDS011;13680;49.936;11.344;2022-08-20T00:09:57;13.13;;;11.13;;
25854;SDS011;13680;49.936;11.344;2022-08-20T00:12:23;14.18;;;11.75;;
25854;SDS011;13680;49.936;11.344;2022-08-20T00:14:48;14.68;;;11.32;;
25854;SDS011;13680;49.936;11.344;2022-08-20T00:17:14;13.57;;;11.32;;
25854;SDS011;13680;49.936;11.344;2022-08-20T00:19:39;14.07;;;10.82;;
25854;SDS011;13680;49.936;11.344;2022-08-20T00:22:05;12.30;;;10.95;;
25854;SDS011;13680;49.936;11.344;2022-08-20T00:24:30;13.27;;;11.73;;
25854;SDS011;13680;49.936;11.344;2022-08-20T00:26:56;12.32;;;11.02;;
25854;SDS011;13680;49.936;11.344;2022-08-20T00:29:22;12.13;;;10.77;;
25854;SDS011;13680;49.936;11.344;2022-08-20T00:31:48;13.25;;;10.90;;
25854;SDS011;13680;49.936;11.344;2022-08-20T00:34:14;16.20;;;11.85;;
25854;SDS011;13680;49.936;11.344;2022-08-20T00:36:39;13.82;;;11.35;;
25854;SDS011;13680;49.936;11.344;2022-08-20T00:39:05;16.33;;;12.07;;
25854;SDS011;13680;49.936;11.344;2022-08-20T00:41:30;13.60;;;11.55;;
25854;SDS011;13680;49.936;11.344;2022-08-20T00:46:25;12.80;;;10.65;;
25854;SDS011;13680;49.936;11.344;2022-08-20T00:48:52;13.30;;;11.70;;
25854;SDS011;13680;49.936;11.344;2022-08-20T00:51:28;13.10;;;10.32;;
25854;SDS011;13680;49.936;11.344;2022-08-20T00:54:01;15.30;;;11.40;;
25854;SDS011;13680;49.936;11.344;2022-08-20T00:56:30;12.90;;;10.70;;
25854;SDS011;13680;49.936;11.344;2022-08-20T00:59:00;11.98;;;10.60;;
25854;SDS011;13680;49.936;11.344;2022-08-20T01:01:26;13.40;;;11.60;;
25854;SDS011;13680;49.936;11.344;2022-08-20T01:03:52;12.88;;;11.23;;
25854;SDS011;13680;49.936;11.344;2022-08-20T01:06:22;12.45;;;10.73;;
25854;SDS011;13680;49.936;11.344;2022-08-20T01:08:49;16.70;;;12.55;;
25854;SDS011;13680;49.936;11.344;2022-08-20T01:11:14;11.98;;;10.77;;
25854;SDS011;13680;49.936;11.344;2022-08-20T01:13:42;14.63;;;12.10;;
25854;SDS011;13680;49.936;11.344;2022-08-20T01:16:11;13.30;;;11.65;;
25854;SDS011;13680;49.936;11.344;2022-08-20T01:18:43;15.35;;;11.57;;
25854;SDS011;13680;49.936;11.344;2022-08-20T01:21:12;14.07;;;12.52;;
25854;SDS011;13680;49.936;11.344;2022-08-20T01:24:39;15.90;;;12.32;;
25854;SDS011;13680;49.936;11.344;2022-08-20T01:26:45;17.02;;;12.57;;
25854;SDS011;13680;49.936;11.344;2022-08-20T01:29:14;15.18;;;12.13;;
25854;SDS011;13680;49.936;11.344;2022-08-20T01:31:43;19.83;;;14.10;;
25854;SDS011;13680;49.936;11.344;2022-08-20T01:34:10;16.80;;;13.82;;
25854;SDS011;13680;49.936;11.344;2022-08-20T01:36:39;15.18;;;12.60;;
25854;SDS011;13680;49.936;11.344;2022-08-20T01:39:09;17.10;;;13.35;;
25854;SDS011;13680;49.936;11.344;2022-08-20T01:44:24;18.83;;;13.38;;
25854;SDS011;13680;49.936;11.344;2022-08-20T01:46:50;15.63;;;12.48;;
25854;SDS011;13680;49.936;11.344;2022-08-20T01:49:24;15.40;;;12.27;;
25854;SDS011;13680;49.936;11.344;2022-08-20T01:51:53;15.05;;;12.23;;
25854;SDS011;13680;49.936;11.344;2022-08-20T01:54:21;14.43;;;12.35;;
25854;SDS011;13680;49.936;11.344;2022-08-20T01:56:51;14.93;;;11.93;;
25854;SDS011;13680;49.936;11.344;2022-08-20T01:59:16;16.67;;;12.15;;
25854;SDS011;13680;49.936;11.344;2022-08-20T02:01:42;17.08;;;11.90;;
25854;SDS011;13680;49.936;11.344;2022-08-20T02:04:08;18.23;;;13.15;;
25854;SDS011;13680;49.936;11.344;2022-08-20T02:06:39;16.73;;;12.18;;
25854;SDS011;13680;49.936;11.344;2022-08-20T02:09:08;21.33;;;13.18;;
25854;SDS011;13680;49.936;11.344;2022-08-20T02:11:34;18.77;;;14.07;;
25854;SDS011;13680;49.936;11.344;2022-08-20T02:14:01;17.25;;;13.27;;
25854;SDS011;13680;49.936;11.344;2022-08-20T02:16:32;18.88;;;14.13;;
25854;SDS011;13680;49.936;11.344;2022-08-20T02:19:02;16.70;;;12.40;;
25854;SDS011;13680;49.936;11.344;2022-08-20T02:21:34;17.38;;;12.77;;
25854;SDS011;13680;49.936;11.344;2022-08-20T02:24:02;18.55;;;12.75;;
25854;SDS011;13680;49.936;11.344;2022-08-20T02:26:28;17.88;;;13.35;;
25854;SDS011;13680;49.936;11.344;2022-08-20T02:28:54;16.70;;;12.48;;
25854;SDS011;13680;49.936;11.344;2022-08-20T02:31:21;19.45;;;12.65;;
25854;SDS011;13680;49.936;11.344;2022-08-20T02:33:48;16.83;;;12.48;;
25854;SDS011;13680;49.936;11.344;2022-08-20T02:36:14;13.00;;;11.60;;
25854;SDS011;13680;49.936;11.344;2022-08-20T02:38:43;13.70;;;11.70;;
25854;SDS011;13680;49.936;11.344;2022-08-20T02:41:09;16.25;;;12.25;;
25854;SDS011;13680;49.936;11.344;2022-08-20T02:43:35;12.80;;;10.82;;
25854;SDS011;13680;49.936;11.344;2022-08-20T02:46:01;15.48;;;12.52;;
25854;SDS011;13680;49.936;11.344;2022-08-20T02:48:27;15.18;;;11.50;;
25854;SDS011;13680;49.936;11.344;2022-08-20T02:50:57;18.50;;;11.75;;
25854;SDS011;13680;49.936;11.344;2022-08-20T02:53:26;14.95;;;11.80;;
25854;SDS011;13680;49.936;11.344;2022-08-20T02:55:54;14.55;;;12.00;;
25854;SDS011;13680;49.936;11.344;2022-08-20T02:58:20;15.77;;;12.00;;
25854;SDS011;13680;49.936;11.344;2022-08-20T03:00:47;15.05;;;11.27;;
25854;SDS011;13680;49.936;11.344;2022-08-20T03:03:13;13.57;;;11.88;;
25854;SDS011;13680;49.936;11.344;2022-08-20T03:05:40;16.20;;;12.15;;
25854;SDS011;13680;49.936;11.344;2022-08-20T03:08:07;14.50;;;11.35;;
25854;SDS011;13680;49.936;11.344;2022-08-20T03:10:35;13.52;;;11.55;;
25854;SDS011;13680;49.936;11.344;2022-08-20T03:13:03;15.88;;;10.88;;
25854;SDS011;13680;49.936;11.344;2022-08-20T03:15:30;17.08;;;11.35;;
25854;SDS011;13680;49.936;11.344;2022-08-20T03:17:57;16.38;;;11.27;;
25854;SDS011;13680;49.936;11.344;2022-08-20T03:20:24;15.73;;;11.63;;
25854;SDS011;13680;49.936;11.344;2022-08-20T03:22:50;15.93;;;11.85;;
25854;SDS011;13680;49.936;11.344;2022-08-20T03:25:16;13.85;;;11.68;;
25854;SDS011;13680;49.936;11.344;2022-08-20T03:27:42;12.10;;;10.80;;
25854;SDS011;13680;49.936;11.344;2022-08-20T03:30:09;15.88;;;12.27;;
25854;SDS011;13680;49.936;11.344;2022-08-20T03:32:37;16.15;;;11.38;;
25854;SDS011;13680;49.936;11.344;2022-08-20T03:35:04;16.50;;;11.40;;
25854;SDS011;13680;49.936;11.344;2022-08-20T03:37:31;14.43;;;11.43;;
25854;SDS011;13680;49.936;11.344;2022-08-20T03:39:58;12.38;;;10.70;;
25854;SDS011;13680;49.936;11.344;2022-08-20T03:42:24;14.38;;;11.57;;
25854;SDS011;13680;49.936;11.344;2022-08-20T03:44:50;16.02;;;12.00;;
25854;SDS011;13680;49.936;11.344;2022-08-20T03:47:16;14.38;;;11.25;;
25854;SDS011;13680;49.936;11.344;2022-08-20T03:49:41;14.98;;;10.95;;
25854;SDS011;13680;49.936;11.344;2022-08-20T03:52:07;12.80;;;11.43;;
25854;SDS011;13680;49.936;11.344;2022-08-20T03:54:33;14.10;;;11.13;;
25854;SDS011;13680;49.936;11.344;2022-08-20T03:56:59;14.52;;;10.85;;
25854;SDS011;13680;49.936;11.344;2022-08-20T03:59:26;12.27;;;10.98;;
25854;SDS011;13680;49.936;11.344;2022-08-20T04:01:51;14.98;;;11.30;;
25854;SDS011;13680;49.936;11.344;2022-08-20T04:04:17;13.43;;;11.57;;
25854;SDS011;13680;49.936;11.344;2022-08-20T04:06:43;21.27;;;12.57;;
25854;SDS011;13680;49.936;11.344;2022-08-20T04:09:11;19.05;;;12.52;;
25854;SDS011;13680;49.936;11.344;2022-08-20T04:11:38;14.55;;;11.77;;
25854;SDS011;13680;49.936;11.344;2022-08-20T04:14:06;15.45;;;11.88;;
25854;SDS011;13680;49.936;11.344;2022-08-20T04:16:34;16.27;;;11.48;;
25854;SDS011;13680;49.936;11.344;2022-08-20T04:18:59;15.13;;;11.65;;
25854;SDS011;13680;49.936;11.344;2022-08-20T04:21:25;14.80;;;11.85;;
25854;SDS011;13680;49.936;11.344;2022-08-20T04:23:51;15.15;;;11.00;;
25854;SDS011;13680;49.936;11.344;2022-08-20T04:26:16;18.88;;;11.95;;
25854;SDS011;13680;49.936;11.344;2022-08-20T04:28:42;15.02;;;11.80;;
25854;SDS011;13680;49.936;11.344;2022-08-20T04:31:08;14.23;;;11.77;;
25854;SDS011;13680;49.936;11.344;2022-08-20T04:33:33;13.55;;;11.30;;
25854;SDS011;13680;49.936;11.344;2022-08-20T04:35:59;14.10;;;11.50;;
25854;SDS011;13680;49.936;11.344;2022-08-20T04:38:27;16.08;;;13.43;;
25854;SDS011;13680;49.936;11.344;2022-08-20T04:40:53;19.58;;;14.68;;
25854;SDS011;13680;49.936;11.344;2022-08-20T04:43:26;19.38;;;14.95;;
25854;SDS011;13680;49.936;11.344;2022-08-20T04:45:53;17.65;;;13.68;;
25854;SDS011;13680;49.936;11.344;2022-08-20T04:48:22;17.38;;;12.80;;
25854;SDS011;13680;49.936;11.344;2022-08-20T04:50:48;17.70;;;13.52;;
25854;SDS011;13680;49.936;11.344;2022-08-20T04:53:15;19.88;;;14.02;;
25854;SDS011;13680;49.936;11.344;2022-08-20T04:55:42;16.55;;;13.18;;
25854;SDS011;13680;49.936;11.344;2022-08-20T04:58:17;18.52;;;13.93;;
25854;SDS011;13680;49.936;11.344;2022-08-20T05:00:46;14.80;;;12.90;;
25854;SDS011;13680;49.936;11.344;2022-08-20T05:03:14;16.95;;;12.93;;
25854;SDS011;13680;49.936;11.344;2022-08-20T05:05:40;16.73;;;13.05;;
25854;SDS011;13680;49.936;11.344;2022-08-20T05:08:06;15.23;;;12.88;;
25854;SDS011;13680;49.936;11.344;2022-08-20T05:10:31;15.90;;;13.77;;
25854;SDS011;13680;49.936;11.344;2022-08-20T05:12:56;17.45;;;14.00;;
25854;SDS011;13680;49.936;11.344;2022-08-20T05:15:22;20.50;;;14.20;;
25854;SDS011;13680;49.936;11.344;2022-08-20T05:17:53;17.98;;;14.55;;
25854;SDS011;13680;49.936;11.344;2022-08-20T05:20:21;17.35;;;13.93;;
25854;SDS011;13680;49.936;11.344;2022-08-20T05:22:46;17.98;;;13.80;;
25854;SDS011;13680;49.936;11.344;2022-08-20T05:25:12;22.75;;;15.20;;
25854;SDS011;13680;49.936;11.344;2022-08-20T05:27:37;19.48;;;15.23;;
25854;SDS011;13680;49.936;11.344;2022-08-20T05:30:06;19.30;;;14.93;;
25854;SDS011;13680;49.936;11.344;2022-08-20T05:32:33;20.40;;;14.75;;
25854;SDS011;13680;49.936;11.344;2022-08-20T05:35:00;17.23;;;14.38;;
25854;SDS011;13680;49.936;11.344;2022-08-20T05:37:26;17.73;;;14.93;;
25854;SDS011;13680;49.936;11.344;2022-08-20T05:39:52;19.27;;;14.40;;
25854;SDS011;13680;49.936;11.344;2022-08-20T05:42:17;17.80;;;15.07;;
25854;SDS011;13680;49.936;11.344;2022-08-20T05:44:42;19.63;;;15.38;;
25854;SDS011;13680;49.936;11.344;2022-08-20T05:47:10;20.67;;;15.40;;
25854;SDS011;13680;49.936;11.344;2022-08-20T05:49:35;18.35;;;14.77;;
25854;SDS011;13680;49.936;11.344;2022-08-20T05:52:02;21.40;;;15.20;;
25854;SDS011;13680;49.936;11.344;2022-08-20T05:54:28;18.50;;;14.57;;
25854;SDS011;13680;49.936;11.344;2022-08-20T05:56:53;17.90;;;14.45;;
25854;SDS011;13680;49.936;11.344;2022-08-20T05:59:19;18.65;;;13.80;;
25854;SDS011;13680;49.936;11.344;2022-08-20T06:01:46;16.95;;;14.07;;
25854;SDS011;13680;49.936;11.344;2022-08-20T06:04:12;18.17;;;14.18;;
25854;SDS011;13680;49.936;11.344;2022-08-20T06:06:50;15.48;;;13.50;;
25854;SDS011;13680;49.936;11.344;2022-08-20T06:09:18;15.68;;;13.57;;
25854;SDS011;13680;49.936;11.344;2022-08-20T06:11:45;15.52;;;13.25;;
25854;SDS011;13680;49.936;11.344;2022-08-20T06:14:11;16.42;;;13.18;;
25854;SDS011;13680;49.936;11.344;2022-08-20T06:16:36;19.55;;;13.80;;
25854;SDS011;13680;49.936;11.344;2022-08-20T06:19:02;14.98;;;12.25;;
25854;SDS011;13680;49.936;11.344;2022-08-20T06:21:28;17.05;;;12.85;;
25854;SDS011;13680;49.936;11.344;2022-08-20T06:23:53;15.32;;;12.80;;
25854;SDS011;13680;49.936;11.344;2022-08-20T06:26:18;15.50;;;11.98;;
25854;SDS011;13680;49.936;11.344;2022-08-20T06:28:44;13.40;;;12.00;;
25854;SDS011;13680;49.936;11.344;2022-08-20T06:31:09;14.48;;;12.48;;
25854;SDS011;13680;49.936;11.344;2022-08-20T06:33:35;14.35;;;12.52;;
25854;SDS011;13680;49.936;11.344;2022-08-20T06:36:02;17.15;;;12.20;;
25854;SDS011;13680;49.936;11.344;2022-08-20T06:38:27;16.08;;;12.07;;
25854;SDS011;13680;49.936;11.344;2022-08-20T06:40:53;12.90;;;11.48;;
25854;SDS011;13680;49.936;11.344;2022-08-20T06:43:18;13.13;;;11.60;;
25854;SDS011;13680;49.936;11.344;2022-08-20T06:45:44;14.48;;;12.35;;
25854;SDS011;13680;49.936;11.344;2022-08-20T06:48:10;33.55;;;22.83;;
25854;SDS011;13680;49.936;11.344;2022-08-20T06:50:38;33.42;;;20.45;;
25854;SDS011;13680;49.936;11.344;2022-08-20T06:53:10;29.23;;;18.02;;
25854;SDS011;13680;49.936;11.344;2022-08-20T06:55:38;30.17;;;18.52;;
25854;SDS011;13680;49.936;11.344;2022-08-20T06:58:06;27.17;;;17.92;;
25854;SDS011;13680;49.936;11.344;2022-08-20T07:00:34;30.63;;;17.95;;
25854;SDS011;13680;49.936;11.344;2022-08-20T07:03:01;29.67;;;19.65;;
25854;SDS011;13680;49.936;11.344;2022-08-20T07:05:28;24.83;;;19.13;;
25854;SDS011;13680;49.936;11.344;2022-08-20T07:07:55;31.23;;;20.27;;
25854;SDS011;13680;49.936;11.344;2022-08-20T07:10:21;30.48;;;20.38;;
25854;SDS011;13680;49.936;11.344;2022-08-20T07:12:48;28.27;;;20.17;;
25854;SDS011;13680;49.936;11.344;2022-08-20T07:15:15;26.65;;;20.05;;
25854;SDS011;13680;49.936;11.344;2022-08-20T07:17:47;26.90;;;19.70;;
25854;SDS011;13680;49.936;11.344;2022-08-20T07:20:17;24.45;;;18.95;;
25854;SDS011;13680;49.936;11.344;2022-08-20T07:22:43;26.23;;;18.92;;
25854;SDS011;13680;49.936;11.344;2022-08-20T07:25:11;30.67;;;20.80;;
25854;SDS011;13680;49.936;11.344;2022-08-20T07:27:38;31.23;;;19.77;;
25854;SDS011;13680;49.936;11.344;2022-08-20T07:30:05;27.75;;;19.65;;
25854;SDS011;13680;49.936;11.344;2022-08-20T07:32:51;29.45;;;21.33;;
25854;SDS011;13680;49.936;11.344;2022-08-20T07:35:17;28.30;;;20.45;;
25854;SDS011;13680;49.936;11.344;2022-08-20T07:37:47;32.70;;;20.73;;
25854;SDS011;13680;49.936;11.344;2022-08-20T07:40:19;26.98;;;20.05;;
25854;SDS011;13680;49.936;11.344;2022-08-20T07:42:47;29.13;;;20.35;;
25854;SDS011;13680;49.936;11.344;2022-08-20T07:45:14;29.42;;;20.92;;
25854;SDS011;13680;49.936;11.344;2022-08-20T07:47:43;25.48;;;18.90;;
25854;SDS011;13680;49.936;11.344;2022-08-20T07:50:11;27.23;;;20.08;;
25854;SDS011;13680;49.936;11.344;2022-08-20T07:52:38;29.00;;;20.35;;
25854;SDS011;13680;49.936;11.344;2022-08-20T07:55:05;26.20;;;20.45;;
25854;SDS011;13680;49.936;11.344;2022-08-20T07:57:32;27.55;;;19.10;;
25854;SDS011;13680;49.936;11.344;2022-08-20T07:59:57;23.92;;;19.42;;
25854;SDS011;13680;49.936;11.344;2022-08-20T08:02:25;25.88;;;19.58;;
25854;SDS011;13680;49.936;11.344;2022-08-20T08:04:52;27.77;;;19.67;;
25854;SDS011;13680;49.936;11.344;2022-08-20T08:07:18;26.50;;;19.38;;
25854;SDS011;13680;49.936;11.344;2022-08-20T08:09:43;23.90;;;19.40;;
25854;SDS011;13680;49.936;11.344;2022-08-20T08:12:11;23.17;;;19.65;;
25854;SDS011;13680;49.936;11.344;2022-08-20T08:14:37;30.80;;;20.73;;
25854;SDS011;13680;49.936;11.344;2022-08-20T08:17:06;26.23;;;19.63;;
25854;SDS011;13680;49.936;11.344;2022-08-20T08:19:33;27.83;;;19.67;;
25854;SDS011;13680;49.936;11.344;2022-08-20T08:22:06;26.83;;;19.38;;
25854;SDS011;13680;49.936;11.344;2022-08-20T08:24:35;27.95;;;19.33;;
25854;SDS011;13680;49.936;11.344;2022-08-20T08:27:01;24.42;;;19.13;;
25854;SDS011;13680;49.936;11.344;2022-08-20T08:29:27;27.35;;;19.75;;
25854;SDS011;13680;49.936;11.344;2022-08-20T08:31:53;30.38;;;18.77;;
25854;SDS011;13680;49.936;11.344;2022-08-20T08:34:19;26.90;;;18.73;;
25854;SDS011;13680;49.936;11.344;2022-08-20T08:36:44;24.95;;;18.60;;
25854;SDS011;13680;49.936;11.344;2022-08-20T08:39:09;23.00;;;18.27;;
25854;SDS011;13680;49.936;11.344;2022-08-20T08:41:36;22.50;;;18.55;;
25854;SDS011;13680;49.936;11.344;2022-08-20T08:44:13;24.98;;;19.23;;
25854;SDS011;13680;49.936;11.344;2022-08-20T08:46:47;22.48;;;19.13;;
25854;SDS011;13680;49.936;11.344;2022-08-20T08:49:16;30.95;;;22.20;;
25854;SDS011;13680;49.936;11.344;2022-08-20T08:51:56;22.08;;;18.80;;
25854;SDS011;13680;49.936;11.344;2022-08-20T08:54:23;24.92;;;18.70;;
25854;SDS011;13680;49.936;11.344;2022-08-20T08:56:52;22.20;;;17.88;;
25854;SDS011;13680;49.936;11.344;2022-08-20T08:59:19;22.08;;;18.45;;
25854;SDS011;13680;49.936;11.344;2022-08-20T09:01:49;23.73;;;17.80;;
25854;SDS011;13680;49.936;11.344;2022-08-20T09:04:20;21.75;;;17.23;;
25854;SDS011;13680;49.936;11.344;2022-08-20T09:06:48;23.02;;;16.73;;
25854;SDS011;13680;49.936;11.344;2022-08-20T09:09:20;23.15;;;18.05;;
25854;SDS011;13680;49.936;11.344;2022-08-20T09:11:50;21.98;;;17.02;;
25854;SDS011;13680;49.936;11.344;2022-08-20T09:14:17;22.55;;;17.45;;
25854;SDS011;13680;49.936;11.344;2022-08-20T09:16:43;23.52;;;17.52;;
25854;SDS011;13680;49.936;11.344;2022-08-20T09:19:09;20.95;;;18.10;;
25854;SDS011;13680;49.936;11.344;2022-08-20T09:21:34;22.10;;;18.10;;
25854;SDS011;13680;49.936;11.344;2022-08-20T09:24:00;22.52;;;17.00;;
25854;SDS011;13680;49.936;11.344;2022-08-20T09:26:25;21.73;;;16.65;;
25854;SDS011;13680;49.936;11.344;2022-08-20T09:28:50;20.60;;;17.77;;
25854;SDS011;13680;49.936;11.344;2022-08-20T09:31:16;21.38;;;17.50;;
25854;SDS011;13680;49.936;11.344;2022-08-20T09:33:41;19.65;;;17.40;;
25854;SDS011;13680;49.936;11.344;2022-08-20T09:36:06;21.08;;;17.63;;
25854;SDS011;13680;49.936;11.344;2022-08-20T09:38:32;20.60;;;17.35;;
25854;SDS011;13680;49.936;11.344;2022-08-20T09:40:57;23.35;;;17.98;;
25854;SDS011;13680;49.936;11.344;2022-08-20T09:43:23;19.63;;;16.77;;
25854;SDS011;13680;49.936;11.344;2022-08-20T09:45:48;21.92;;;17.20;;
25854;SDS011;13680;49.936;11.344;2022-08-20T09:48:13;22.88;;;18.45;;
25854;SDS011;13680;49.936;11.344;2022-08-20T09:50:40;23.15;;;18.70;;
25854;SDS011;13680;49.936;11.344;2022-08-20T09:53:10;22.42;;;18.55;;
25854;SDS011;13680;49.936;11.344;2022-08-20T09:55:37;21.63;;;17.92;;
25854;SDS011;13680;49.936;11.344;2022-08-20T09:58:31;25.83;;;17.60;;
25854;SDS011;13680;49.936;11.344;2022-08-20T10:00:59;23.77;;;17.63;;
25854;SDS011;13680;49.936;11.344;2022-08-20T10:03:30;22.60;;;17.02;;
25854;SDS011;13680;49.936;11.344;2022-08-20T10:05:55;20.77;;;18.17;;
25854;SDS011;13680;49.936;11.344;2022-08-20T10:08:20;20.65;;;17.40;;
25854;SDS011;13680;49.936;11.344;2022-08-20T10:10:46;20.33;;;17.27;;
25854;SDS011;13680;49.936;11.344;2022-08-20T10:13:11;21.92;;;17.33;;
25854;SDS011;13680;49.936;11.344;2022-08-20T10:15:37;21.75;;;16.77;;
25854;SDS011;13680;49.936;11.344;2022-08-20T10:18:03;19.40;;;16.80;;
25854;SDS011;13680;49.936;11.344;2022-08-20T10:20:29;22.80;;;18.17;;
25854;SDS011;13680;49.936;11.344;2022-08-20T10:22:55;23.25;;;18.02;;
25854;SDS011;13680;49.936;11.344;2022-08-20T10:25:20;23.90;;;18.10;;
25854;SDS011;13680;49.936;11.344;2022-08-20T10:27:46;21.35;;;17.77;;
25854;SDS011;13680;49.936;11.344;2022-08-20T10:30:11;22.05;;;17.92;;
25854;SDS011;13680;49.936;11.344;2022-08-20T10:32:37;23.00;;;19.95;;
25854;SDS011;13680;49.936;11.344;2022-08-20T10:35:02;24.30;;;20.30;;
25854;SDS011;13680;49.936;11.344;2022-08-20T10:37:28;23.52;;;17.50;;
25854;SDS011;13680;49.936;11.344;2022-08-20T10:39:54;20.25;;;16.88;;
25854;SDS011;13680;49.936;11.344;2022-08-20T10:42:20;23.88;;;19.25;;
25854;SDS011;13680;49.936;11.344;2022-08-20T10:44:46;22.75;;;18.58;;
25854;SDS011;13680;49.936;11.344;2022-08-20T10:47:19;22.90;;;18.48;;
25854;SDS011;13680;49.936;11.344;2022-08-20T10:49:47;25.48;;;19.77;;
25854;SDS011;13680;49.936;11.344;2022-08-20T10:52:15;27.52;;;18.85;;
25854;SDS011;13680;49.936;11.344;2022-08-20T10:54:40;23.33;;;19.80;;
25854;SDS011;13680;49.936;11.344;2022-08-20T10:57:06;22.25;;;18.13;;
25854;SDS011;13680;49.936;11.344;2022-08-20T10:59:36;24.17;;;17.38;;
25854;SDS011;13680;49.936;11.344;2022-08-20T11:02:02;19.23;;;17.10;;
25854;SDS011;13680;49.936;11.344;2022-08-20T11:04:28;21.90;;;16.08;;
25854;SDS011;13680;49.936;11.344;2022-08-20T11:06:53;21.75;;;15.82;;
25854;SDS011;13680;49.936;11.344;2022-08-20T11:09:18;19.95;;;15.60;;
25854;SDS011;13680;49.936;11.344;2022-08-20T11:11:43;21.45;;;16.25;;
25854;SDS011;13680;49.936;11.344;2022-08-20T11:14:09;22.48;;;17.48;;
25854;SDS011;13680;49.936;11.344;2022-08-20T11:16:34;27.38;;;18.75;;
25854;SDS011;13680;49.936;11.344;2022-08-20T11:19:00;20.45;;;17.48;;
25854;SDS011;13680;49.936;11.344;2022-08-20T11:21:25;20.95;;;17.50;;
25854;SDS011;13680;49.936;11.344;2022-08-20T11:23:50;20.13;;;14.98;;
25854;SDS011;13680;49.936;11.344;2022-08-20T11:26:20;21.02;;;17.40;;
25854;SDS011;13680;49.936;11.344;2022-08-20T11:28:47;25.13;;;18.75;;
25854;SDS011;13680;49.936;11.344;2022-08-20T11:31:13;22.23;;;18.00;;
25854;SDS011;13680;49.936;11.344;2022-08-20T11:33:38;22.63;;;17.77;;
25854;SDS011;13680;49.936;11.344;2022-08-20T11:36:03;25.95;;;18.65;;
25854;SDS011;13680;49.936;11.344;2022-08-20T11:38:29;23.42;;;18.42;;
25854;SDS011;13680;49.936;11.344;2022-08-20T11:40:55;23.52;;;18.10;;
25854;SDS011;13680;49.936;11.344;2022-08-20T11:43:20;22.58;;;17.77;;
25854;SDS011;13680;49.936;11.344;2022-08-20T11:45:50;27.35;;;18.50;;
25854;SDS011;13680;49.936;11.344;2022-08-20T11:48:18;26.17;;;17.65;;
25854;SDS011;13680;49.936;11.344;2022-08-20T11:50:43;23.52;;;17.40;;
25854;SDS011;13680;49.936;11.344;2022-08-20T11:53:09;31.40;;;19.02;;
25854;SDS011;13680;49.936;11.344;2022-08-20T11:55:36;23.73;;;18.33;;
25854;SDS011;13680;49.936;11.344;2022-08-20T11:58:02;23.58;;;18.63;;
25854;SDS011;13680;49.936;11.344;2022-08-20T12:00:28;24.48;;;18.90;;
25854;SDS011;13680;49.936;11.344;2022-08-20T12:02:54;24.05;;;19.00;;
25854;SDS011;13680;49.936;11.344;2022-08-20T12:05:20;25.08;;;19.25;;
25854;SDS011;13680;49.936;11.344;2022-08-20T12:07:45;22.65;;;19.17;;
25854;SDS011;13680;49.936;11.344;2022-08-20T12:10:11;26.40;;;19.85;;
25854;SDS011;13680;49.936;11.344;2022-08-20T12:12:37;25.42;;;18.63;;
25854;SDS011;13680;49.936;11.344;2022-08-20T12:15:03;25.33;;;20.13;;
25854;SDS011;13680;49.936;11.344;2022-08-20T12:17:30;26.50;;;19.52;;
25854;SDS011;13680;49.936;11.344;2022-08-20T12:19:59;29.65;;;22.98;;
25854;SDS011;13680;49.936;11.344;2022-08-20T12:22:28;42.88;;;38.40;;
25854;SDS011;13680;49.936;11.344;2022-08-20T12:24:54;29.45;;;24.85;;
25854;SDS011;13680;49.936;11.344;2022-08-20T12:27:21;22.73;;;18.92;;
25854;SDS011;13680;49.936;11.344;2022-08-20T12:29:48;21.38;;;17.65;;
25854;SDS011;13680;49.936;11.344;2022-08-20T12:32:17;24.35;;;18.27;;
25854;SDS011;13680;49.936;11.344;2022-08-20T12:34:44;25.80;;;18.67;;
25854;SDS011;13680;49.936;11.344;2022-08-20T12:37:11;26.63;;;18.77;;
25854;SDS011;13680;49.936;11.344;2022-08-20T12:39:40;25.35;;;17.05;;
25854;SDS011;13680;49.936;11.344;2022-08-20T12:42:07;22.63;;;17.67;;
25854;SDS011;13680;49.936;11.344;2022-08-20T12:44:35;23.67;;;17.42;;
25854;SDS011;13680;49.936;11.344;2022-08-20T12:47:07;22.77;;;18.23;;
25854;SDS011;13680;49.936;11.344;2022-08-20T12:49:35;19.20;;;16.33;;
25854;SDS011;13680;49.936;11.344;2022-08-20T12:52:02;19.70;;;15.95;;
25854;SDS011;13680;49.936;11.344;2022-08-20T12:54:28;18.17;;;15.55;;
25854;SDS011;13680;49.936;11.344;2022-08-20T12:56:53;17.60;;;14.98;;
25854;SDS011;13680;49.936;11.344;2022-08-20T12:59:20;20.63;;;15.90;;
25854;SDS011;13680;49.936;11.344;2022-08-20T13:01:48;22.85;;;15.73;;
25854;SDS011;13680;49.936;11.344;2022-08-20T13:04:14;17.63;;;14.55;;
25854;SDS011;13680;49.936;11.344;2022-08-20T13:06:40;18.35;;;15.32;;
25854;SDS011;13680;49.936;11.344;2022-08-20T13:09:05;18.10;;;15.57;;
25854;SDS011;13680;49.936;11.344;2022-08-20T13:11:31;23.45;;;15.80;;
25854;SDS011;13680;49.936;11.344;2022-08-20T13:13:57;22.95;;;16.48;;
25854;SDS011;13680;49.936;11.344;2022-08-20T13:16:22;18.85;;;15.13;;
25854;SDS011;13680;49.936;11.344;2022-08-20T13:18:48;19.00;;;15.73;;
25854;SDS011;13680;49.936;11.344;2022-08-20T13:21:13;16.38;;;13.57;;
25854;SDS011;13680;49.936;11.344;2022-08-20T13:23:39;19.20;;;14.95;;
25854;SDS011;13680;49.936;11.344;2022-08-20T13:26:05;18.05;;;14.32;;
25854;SDS011;13680;49.936;11.344;2022-08-20T13:28:31;19.23;;;14.40;;
25854;SDS011;13680;49.936;11.344;2022-08-20T13:30:56;19.30;;;14.95;;
25854;SDS011;13680;49.936;11.344;2022-08-20T13:33:22;45.40;;;16.85;;
25854;SDS011;13680;49.936;11.344;2022-08-20T13:35:50;34.17;;;17.27;;
25854;SDS011;13680;49.936;11.344;2022-08-20T13:38:16;34.35;;;18.50;;
25854;SDS011;13680;49.936;11.344;2022-08-20T13:40:41;35.78;;;18.40;;
25854;SDS011;13680;49.936;11.344;2022-08-20T13:43:07;35.85;;;18.13;;
25854;SDS011;13680;49.936;11.344;2022-08-20T13:45:34;30.40;;;18.65;;
25854;SDS011;13680;49.936;11.344;2022-08-20T13:48:00;32.72;;;19.50;;
25854;SDS011;13680;49.936;11.344;2022-08-20T13:50:25;27.50;;;18.92;;
25854;SDS011;13680;49.936;11.344;2022-08-20T13:52:51;28.30;;;18.85;;
25854;SDS011;13680;49.936;11.344;2022-08-20T13:55:18;26.33;;;17.85;;
25854;SDS011;13680;49.936;11.344;2022-08-20T13:57:45;24.75;;;17.42;;
25854;SDS011;13680;49.936;11.344;2022-08-20T14:00:12;25.10;;;17.33;;
25854;SDS011;13680;49.936;11.344;2022-08-20T14:02:41;24.38;;;18.05;;
25854;SDS011;13680;49.936;11.344;2022-08-20T14:05:07;26.25;;;18.45;;
25854;SDS011;13680;49.936;11.344;2022-08-20T14:07:34;20.20;;;15.40;;
25854;SDS011;13680;49.936;11.344;2022-08-20T14:10:03;22.15;;;17.35;;
25854;SDS011;13680;49.936;11.344;2022-08-20T14:12:34;21.42;;;17.20;;